Terminal Aerodrome Forecast
Issued by NWS Cleveland, OH

Home | Current Version | Previous Version | Text Only | Print | Product List | Glossary Off
Versions: 1 2 3 4 5 6 7 8 9 10 11 12 13 14 15 16 17 18 19 20 21 22

000
FTUS41 KCLE 281700
TAFERI
TAF
KERI 281729Z 2818/0118 VRB04KT P6SM BKN250
     FM010700 14004KT P6SM OVC050
     FM010800 15004KT 4SM -SN SCT015 OVC035
      TEMPO 0109/0113 2SM -SN BKN008 OVC015
     FM011600 20007KT 5SM -SN BR SCT008 OVC015=

USA.gov is the U.S. government's official web portal to all federal, state and local government web resources and services.